Time;durP1;ratioP1;P1;durP2;ratioP2;P2;SDS_P1;SDS_P2;PMS_P1;PMS_P2;Temp;Humidity;BMP_temperature;BMP_pressure;BME280_temperature;BME280_humidity;BME280_pressure;Samples;Min_cycle;Max_cycle;Signal;HPM_P1;HPM_P2
2021/08/20 00:01:32;;;;;;;6.60;2.87;;;15.80;99.90;;;;;;5051612;28;20413;-59
2021/08/20 00:04:07;;;;;;;4.43;2.77;;;15.80;99.90;;;;;;5052728;28;20404;-59
2021/08/20 00:06:51;;;;;;;2.97;2.43;;;15.80;99.90;;;;;;5037091;28;20257;-58
2021/08/20 00:09:20;;;;;;;5.83;2.40;;;15.80;99.90;;;;;;5040124;28;20519;-59
2021/08/20 00:11:54;;;;;;;2.60;2.37;;;15.80;99.90;;;;;;5055232;28;20538;-58
2021/08/20 00:14:31;;;;;;;2.47;2.27;;;15.80;99.90;;;;;;5027700;28;20447;-59
2021/08/20 00:17:04;;;;;;;2.80;2.47;;;15.80;99.90;;;;;;5055375;28;20469;-62
2021/08/20 00:19:38;;;;;;;3.00;2.57;;;15.70;99.90;;;;;;5076706;28;20402;-60
2021/08/20 00:22:09;;;;;;;4.90;2.80;;;15.70;99.90;;;;;;5072196;28;20433;-61
2021/08/20 00:24:37;;;;;;;2.80;2.50;;;15.70;99.90;;;;;;5076402;28;20481;-61
2021/08/20 00:27:03;;;;;;;2.83;2.53;;;15.70;99.90;;;;;;5071887;28;20433;-59
2021/08/20 00:29:49;;;;;;;2.80;2.50;;;15.70;99.90;;;;;;5030112;28;20470;-58
2021/08/20 00:32:38;;;;;;;3.20;2.60;;;15.70;99.90;;;;;;5045853;28;20451;-58
2021/08/20 00:35:07;;;;;;;3.60;2.57;;;15.70;99.90;;;;;;5040014;28;20420;-60
2021/08/20 00:37:35;;;;;;;5.47;2.77;;;15.80;99.90;;;;;;5045334;28;20841;-59
2021/08/20 00:40:09;;;;;;;2.50;2.30;;;15.80;99.90;;;;;;5013711;28;20896;-59
2021/08/20 00:42:37;;;;;;;2.67;2.47;;;15.80;99.90;;;;;;5050423;28;20422;-59
2021/08/20 00:45:04;;;;;;;2.50;2.20;;;15.70;99.90;;;;;;5052097;28;20766;-59
2021/08/20 00:47:30;;;;;;;3.03;2.73;;;15.70;99.90;;;;;;5033023;28;20463;-59
2021/08/20 00:50:05;;;;;;;2.67;2.40;;;15.70;99.90;;;;;;5051829;28;20453;-58
2021/08/20 00:52:39;;;;;;;2.83;2.13;;;15.70;99.90;;;;;;5050397;28;20647;-59
2021/08/20 00:55:15;;;;;;;6.00;2.67;;;15.70;99.90;;;;;;5030185;28;20426;-59
2021/08/20 00:57:47;;;;;;;3.07;2.77;;;15.70;99.90;;;;;;5013438;28;20460;-59
2021/08/20 01:00:16;;;;;;;2.93;2.40;;;15.70;99.90;;;;;;5033670;28;20414;-59
2021/08/20 01:02:47;;;;;;;3.53;2.40;;;15.70;99.90;;;;;;5040748;28;20464;-58
2021/08/20 01:05:19;;;;;;;4.10;2.13;;;15.80;99.90;;;;;;5033501;28;20402;-60
2021/08/20 01:07:45;;;;;;;3.30;2.73;;;15.80;99.90;;;;;;5037736;28;20451;-58
2021/08/20 01:10:15;;;;;;;3.03;2.73;;;15.80;99.90;;;;;;5032557;28;20457;-59
2021/08/20 01:13:03;;;;;;;7.20;3.40;;;15.80;99.90;;;;;;5047889;28;20528;-59
2021/08/20 01:15:31;;;;;;;4.97;2.67;;;15.80;99.90;;;;;;5050405;28;20413;-60
2021/08/20 01:17:57;;;;;;;4.53;2.57;;;15.80;99.90;;;;;;5049636;28;20430;-59
2021/08/20 01:20:25;;;;;;;3.50;2.40;;;15.80;99.90;;;;;;5050834;28;20417;-59
2021/08/20 01:22:53;;;;;;;3.43;2.57;;;15.80;99.90;;;;;;5038176;28;20257;-59
2021/08/20 01:25:21;;;;;;;5.00;2.37;;;15.80;99.90;;;;;;5031485;28;20413;-59
2021/08/20 01:27:47;;;;;;;7.10;2.53;;;15.70;99.90;;;;;;5029277;28;20433;-58
2021/08/20 01:30:15;;;;;;;3.03;2.70;;;15.70;99.90;;;;;;5034117;28;20465;-59
2021/08/20 01:32:44;;;;;;;3.23;2.80;;;15.70;99.90;;;;;;5043339;28;20190;-59
2021/08/20 01:35:15;;;;;;;5.00;2.47;;;15.70;99.90;;;;;;5053290;28;20402;-60
2021/08/20 01:37:48;;;;;;;5.00;2.90;;;15.70;99.90;;;;;;5050226;28;20547;-59
2021/08/20 01:40:29;;;;;;;4.47;2.80;;;15.70;99.90;;;;;;5041778;28;20869;-59
2021/08/20 01:43:10;;;;;;;4.53;2.60;;;15.70;99.90;;;;;;5051042;28;20890;-59
2021/08/20 01:45:42;;;;;;;2.67;2.37;;;15.70;99.90;;;;;;5047351;28;20418;-59
2021/08/20 01:48:08;;;;;;;2.60;2.40;;;15.70;99.90;;;;;;5049219;28;20475;-58
2021/08/20 01:50:44;;;;;;;2.70;2.40;;;15.70;99.90;;;;;;5050341;28;20453;-59
2021/08/20 01:53:21;;;;;;;6.53;2.63;;;15.80;99.90;;;;;;5051083;28;20689;-59
2021/08/20 01:55:55;;;;;;;3.70;2.50;;;15.70;99.90;;;;;;5050499;28;20496;-59
2021/08/20 01:58:24;;;;;;;2.70;2.37;;;15.80;99.90;;;;;;5049842;28;20875;-59
2021/08/20 02:00:52;;;;;;;3.37;2.30;;;15.80;99.90;;;;;;5050567;28;20787;-59
2021/08/20 02:03:20;;;;;;;3.20;2.57;;;15.70;99.90;;;;;;5049820;28;20397;-59
2021/08/20 02:05:46;;;;;;;3.13;2.23;;;15.70;99.90;;;;;;5028456;28;20811;-59
2021/08/20 02:08:40;;;;;;;5.07;2.40;;;15.70;99.90;;;;;;5037012;28;20930;-59
2021/08/20 02:11:07;;;;;;;4.50;2.77;;;15.70;99.90;;;;;;5045180;28;20211;-59
2021/08/20 02:13:41;;;;;;;2.43;2.23;;;15.70;99.90;;;;;;5051257;28;20467;-59
2021/08/20 02:16:13;;;;;;;8.63;2.60;;;15.70;99.90;;;;;;5046084;28;20424;-59
2021/08/20 02:18:42;;;;;;;9.20;2.77;;;15.60;99.90;;;;;;5030937;28;20487;-59
2021/08/20 02:21:15;;;;;;;4.87;2.40;;;15.60;99.90;;;;;;5050063;28;20948;-59
2021/08/20 02:23:43;;;;;;;8.67;2.80;;;15.70;99.90;;;;;;5050255;28;20449;-59
2021/08/20 02:26:17;;;;;;;4.43;2.77;;;15.70;99.90;;;;;;5042923;28;20421;-59
2021/08/20 02:28:46;;;;;;;4.93;2.60;;;15.70;99.90;;;;;;5033025;28;20451;-59
2021/08/20 02:31:12;;;;;;;3.10;2.80;;;15.70;99.90;;;;;;5029899;28;20470;-59
2021/08/20 02:33:44;;;;;;;3.33;2.60;;;15.70;99.90;;;;;;5029184;28;20418;-59
2021/08/20 02:36:13;;;;;;;4.47;2.83;;;15.70;99.90;;;;;;5048445;28;20179;-59
2021/08/20 02:38:41;;;;;;;5.90;2.80;;;15.70;99.90;;;;;;5032338;28;20878;-59
2021/08/20 02:41:07;;;;;;;4.67;2.60;;;15.70;99.90;;;;;;5030006;28;20429;-59
2021/08/20 02:43:39;;;;;;;2.87;2.57;;;15.70;99.90;;;;;;5048107;28;20691;-59
2021/08/20 02:46:08;;;;;;;3.43;3.03;;;15.60;99.90;;;;;;5041275;28;20942;-59
2021/08/20 02:51:42;;;;;;;3.73;2.60;;;15.60;99.90;;;;;;5024235;28;20545;-60
2021/08/20 02:54:16;;;;;;;3.60;2.67;;;15.60;99.90;;;;;;5038953;28;21198;-60
2021/08/20 02:56:45;;;;;;;3.27;2.60;;;15.60;99.90;;;;;;5040308;28;20446;-59
2021/08/20 02:59:13;;;;;;;5.27;3.07;;;15.60;99.90;;;;;;5045388;28;20418;-59
2021/08/20 03:01:48;;;;;;;3.67;2.60;;;15.60;99.90;;;;;;5049477;28;20956;-59
2021/08/20 03:04:29;;;;;;;;;;;;;;;;;;;;;
2021/08/20 03:07:15;;;;;;;5.10;3.10;;;15.60;99.90;;;;;;5033939;28;20951;-58
2021/08/20 03:09:41;;;;;;;7.90;2.93;;;15.60;99.90;;;;;;5047713;28;20449;-58
2021/08/20 03:12:07;;;;;;;3.67;2.90;;;15.70;99.90;;;;;;5049539;28;20471;-59
2021/08/20 03:14:41;;;;;;;3.57;2.40;;;15.60;99.90;;;;;;5045251;28;20179;-58
2021/08/20 03:17:06;;;;;;;3.00;2.60;;;15.60;99.90;;;;;;5035626;28;20440;-58
2021/08/20 03:19:32;;;;;;;4.60;2.97;;;15.60;99.90;;;;;;5046811;28;20413;-57
2021/08/20 03:22:03;;;;;;;2.87;2.43;;;15.60;99.90;;;;;;5053661;28;20171;-59
2021/08/20 03:24:34;;;;;;;8.53;2.40;;;15.60;99.90;;;;;;5053475;28;20195;-59
2021/08/20 03:27:11;;;;;;;2.50;2.30;;;15.60;99.90;;;;;;5030885;28;20446;-58
2021/08/20 03:29:43;;;;;;;3.33;2.63;;;15.60;99.90;;;;;;5048959;28;20967;-59
2021/08/20 03:35:05;;;;;;;3.10;2.80;;;15.60;99.90;;;;;;5024397;28;20406;-58
2021/08/20 03:37:31;;;;;;;3.90;2.97;;;15.60;99.90;;;;;;5038635;28;20450;-58
2021/08/20 03:39:57;;;;;;;2.47;2.27;;;15.60;99.90;;;;;;5015702;28;20406;-58
2021/08/20 03:42:22;;;;;;;5.60;2.70;;;15.60;99.90;;;;;;5052456;28;20206;-58
2021/08/20 03:44:48;;;;;;;4.93;2.63;;;15.50;99.90;;;;;;5054789;28;20286;-58
2021/08/20 03:47:14;;;;;;;3.70;2.50;;;15.50;99.90;;;;;;5033991;28;20216;-59
2021/08/20 03:49:39;;;;;;;4.03;3.23;;;15.50;99.90;;;;;;5052392;28;20195;-59
2021/08/20 03:52:05;;;;;;;3.80;2.93;;;15.40;99.90;;;;;;5052855;28;20636;-58
2021/08/20 03:54:31;;;;;;;4.30;2.53;;;15.40;99.90;;;;;;5045981;28;20229;-58
2021/08/20 03:56:56;;;;;;;3.80;2.37;;;15.40;99.90;;;;;;5032706;28;20846;-58
2021/08/20 03:59:22;;;;;;;7.63;3.30;;;15.40;99.90;;;;;;5040694;28;20179;-59
2021/08/20 04:01:48;;;;;;;4.80;3.13;;;15.30;99.90;;;;;;5052200;28;20278;-58
2021/08/20 04:04:14;;;;;;;8.03;2.30;;;15.30;99.90;;;;;;5053405;28;20175;-59
2021/08/20 04:06:40;;;;;;;4.00;2.43;;;15.30;99.90;;;;;;5069607;28;20471;-59
2021/08/20 04:09:06;;;;;;;3.10;2.40;;;15.20;99.90;;;;;;5053084;28;20751;-59
2021/08/20 04:11:32;;;;;;;3.27;2.43;;;15.20;99.90;;;;;;5052358;28;20801;-57
2021/08/20 04:14:01;;;;;;;5.33;2.63;;;15.20;99.90;;;;;;5045474;28;20172;-59
2021/08/20 04:16:28;;;;;;;4.10;3.00;;;15.10;99.90;;;;;;5038713;28;20172;-58
2021/08/20 04:18:53;;;;;;;3.60;2.53;;;15.10;99.90;;;;;;5036021;28;20457;-58
2021/08/20 04:21:19;;;;;;;3.47;2.70;;;15.10;99.90;;;;;;5051889;28;20414;-59
2021/08/20 04:23:45;;;;;;;3.00;2.47;;;15.10;99.90;;;;;;5052646;28;20175;-58
2021/08/20 04:26:11;;;;;;;3.00;2.67;;;15.10;99.90;;;;;;5052214;28;20597;-58
2021/08/20 04:28:36;;;;;;;3.17;2.40;;;15.10;99.90;;;;;;5039424;28;20187;-58
2021/08/20 04:31:02;;;;;;;6.10;2.33;;;15.10;99.90;;;;;;5051863;28;20274;-58
2021/08/20 04:33:28;;;;;;;6.43;2.70;;;15.10;99.90;;;;;;5034411;28;20261;-58
2021/08/20 04:35:53;;;;;;;4.33;2.83;;;15.10;99.90;;;;;;5051701;28;20553;-59
2021/08/20 04:38:19;;;;;;;5.20;2.40;;;15.10;99.90;;;;;;5050352;28;20574;-58
2021/08/20 04:40:45;;;;;;;6.50;2.90;;;15.10;99.90;;;;;;5051876;28;20197;-58
2021/08/20 04:43:10;;;;;;;2.77;2.27;;;15.10;99.90;;;;;;5034309;28;20513;-58
2021/08/20 04:45:36;;;;;;;4.77;2.20;;;15.10;99.90;;;;;;5048896;28;20286;-58
2021/08/20 04:48:01;;;;;;;4.80;2.73;;;15.10;99.90;;;;;;5014041;28;20188;-58
2021/08/20 04:50:29;;;;;;;5.67;3.20;;;15.10;99.90;;;;;;5032281;28;20545;-58
2021/08/20 04:52:55;;;;;;;4.77;3.20;;;15.10;99.90;;;;;;5035023;28;20266;-58
2021/08/20 04:55:21;;;;;;;3.60;2.90;;;15.00;99.90;;;;;;5038936;28;20426;-58
2021/08/20 04:57:47;;;;;;;15.20;3.37;;;15.00;99.90;;;;;;5035106;28;20456;-58
2021/08/20 05:00:13;;;;;;;3.60;2.97;;;15.00;99.90;;;;;;5033645;28;20178;-57
2021/08/20 05:02:38;;;;;;;4.40;2.90;;;15.00;99.90;;;;;;5050876;28;20198;-58
2021/08/20 05:05:08;;;;;;;6.40;2.40;;;15.00;99.90;;;;;;5032614;28;20430;-58
2021/08/20 05:07:35;;;;;;;3.50;2.87;;;15.10;99.90;;;;;;5051012;28;20260;-59
2021/08/20 05:10:05;;;;;;;3.97;2.27;;;15.10;99.90;;;;;;5048887;28;20456;-59
2021/08/20 05:12:31;;;;;;;3.93;2.57;;;15.10;99.90;;;;;;5051603;28;20421;-59
2021/08/20 05:14:57;;;;;;;3.00;2.30;;;15.10;99.90;;;;;;5047267;28;20489;-59
2021/08/20 05:17:23;;;;;;;4.17;2.87;;;15.20;99.90;;;;;;5048473;28;20591;-58
2021/08/20 05:19:48;;;;;;;3.53;2.40;;;15.30;99.90;;;;;;5050773;28;20174;-58
2021/08/20 05:22:14;;;;;;;5.33;2.60;;;15.30;99.90;;;;;;5050951;28;20655;-58
2021/08/20 05:24:39;;;;;;;7.40;3.20;;;15.30;99.90;;;;;;5048836;28;20186;-59
2021/08/20 05:27:05;;;;;;;4.77;2.50;;;15.30;99.90;;;;;;5031649;28;20191;-59
2021/08/20 05:29:31;;;;;;;4.07;2.93;;;15.30;99.90;;;;;;5050372;28;20183;-58
2021/08/20 05:31:56;;;;;;;4.87;3.73;;;15.30;99.90;;;;;;5033487;28;20675;-58
2021/08/20 05:34:22;;;;;;;3.50;3.00;;;15.30;99.90;;;;;;5049642;28;20583;-59
2021/08/20 05:36:48;;;;;;;2.90;2.70;;;15.30;99.90;;;;;;5050326;28;20190;-59
2021/08/20 05:39:13;;;;;;;6.40;3.13;;;15.30;99.90;;;;;;5034470;28;20167;-58
2021/08/20 05:41:39;;;;;;;3.50;2.80;;;15.30;99.90;;;;;;5032888;28;20276;-59
2021/08/20 05:44:04;;;;;;;2.77;2.53;;;15.30;99.90;;;;;;5047359;28;20175;-59
2021/08/20 05:46:30;;;;;;;5.13;2.63;;;15.30;99.90;;;;;;5032600;28;20175;-58
2021/08/20 05:49:03;;;;;;;4.00;2.93;;;15.30;99.90;;;;;;5050667;28;20163;-58
2021/08/20 05:51:28;;;;;;;5.23;2.63;;;15.30;99.90;;;;;;5038752;28;20293;-58
2021/08/20 05:53:54;;;;;;;5.33;2.57;;;15.40;99.90;;;;;;5043490;28;20961;-58
2021/08/20 05:56:20;;;;;;;4.10;3.30;;;15.40;99.90;;;;;;5052957;28;20225;-57
2021/08/20 05:58:47;;;;;;;3.30;2.73;;;15.50;99.90;;;;;;5046202;28;20175;-58
2021/08/20 06:01:14;;;;;;;7.80;3.80;;;15.60;99.90;;;;;;5030831;28;20238;-58
2021/08/20 06:03:39;;;;;;;13.53;7.03;;;15.70;99.90;;;;;;5048864;28;20413;-59
2021/08/20 06:06:05;;;;;;;12.33;5.50;;;15.90;99.90;;;;;;5049409;28;20968;-59
2021/08/20 06:08:30;;;;;;;4.80;2.87;;;16.00;99.90;;;;;;5030201;28;20203;-58
2021/08/20 06:10:56;;;;;;;3.97;2.73;;;16.10;99.90;;;;;;5047613;28;20197;-59
2021/08/20 06:13:22;;;;;;;7.67;3.10;;;16.10;99.90;;;;;;5050176;28;20167;-59
2021/08/20 06:15:47;;;;;;;3.13;2.83;;;16.20;99.90;;;;;;5029859;28;20262;-59
2021/08/20 06:18:13;;;;;;;9.53;3.00;;;16.20;99.90;;;;;;5037849;28;20227;-58
2021/08/20 06:20:41;;;;;;;5.50;2.73;;;16.20;99.90;;;;;;5049762;28;20183;-57
2021/08/20 06:23:07;;;;;;;5.60;3.03;;;16.10;99.90;;;;;;5049833;28;20274;-58
2021/08/20 06:25:32;;;;;;;6.00;3.20;;;16.10;99.90;;;;;;5067424;28;20409;-60
2021/08/20 06:27:58;;;;;;;5.70;3.20;;;16.00;99.90;;;;;;5063821;28;20378;-59
2021/08/20 06:30:23;;;;;;;6.23;2.93;;;16.10;99.90;;;;;;5073618;28;20414;-59
2021/08/20 06:32:50;;;;;;;3.10;2.80;;;16.10;99.90;;;;;;5074675;28;20210;-60
2021/08/20 06:35:16;;;;;;;3.50;2.83;;;16.10;99.90;;;;;;5056469;28;20228;-58
2021/08/20 06:37:41;;;;;;;4.10;3.00;;;16.30;99.90;;;;;;5049166;28;20529;-58
2021/08/20 06:40:07;;;;;;;6.20;4.10;;;16.50;99.90;;;;;;5049354;28;20540;-59
2021/08/20 06:42:33;;;;;;;5.47;3.00;;;16.70;99.90;;;;;;5049663;28;20171;-59
2021/08/20 06:44:58;;;;;;;10.20;3.20;;;16.80;99.90;;;;;;5030855;28;20430;-58
2021/08/20 06:47:24;;;;;;;10.33;3.30;;;16.90;99.90;;;;;;5032745;28;20248;-58
2021/08/20 06:49:51;;;;;;;7.07;2.63;;;16.90;99.90;;;;;;5048796;28;20280;-59
2021/08/20 06:52:17;;;;;;;4.97;2.77;;;16.90;99.90;;;;;;5049811;28;20456;-59
2021/08/20 06:54:42;;;;;;;5.30;3.00;;;16.90;99.90;;;;;;5031357;28;20422;-58
2021/08/20 06:57:08;;;;;;;8.47;3.20;;;16.90;99.90;;;;;;5035731;28;20690;-59
2021/08/20 06:59:33;;;;;;;3.13;2.80;;;17.00;99.90;;;;;;5045328;28;20178;-58
2021/08/20 07:01:59;;;;;;;5.03;2.93;;;17.00;99.90;;;;;;5049300;28;20643;-59
2021/08/20 07:04:25;;;;;;;6.53;2.90;;;17.00;99.90;;;;;;5049628;28;20167;-58
2021/08/20 07:06:54;;;;;;;6.30;2.90;;;17.00;99.90;;;;;;5048699;28;20182;-58
2021/08/20 07:09:19;;;;;;;8.23;3.10;;;17.10;99.90;;;;;;5032053;28;20164;-58
2021/08/20 07:11:45;;;;;;;7.10;3.20;;;17.00;99.90;;;;;;5029339;28;20414;-58
2021/08/20 07:14:11;;;;;;;7.83;3.70;;;17.00;99.90;;;;;;5036263;28;20174;-60
2021/08/20 07:16:36;;;;;;;16.73;3.87;;;17.10;99.90;;;;;;5032219;28;20198;-58
2021/08/20 07:19:02;;;;;;;11.60;3.30;;;17.10;99.90;;;;;;5048747;28;20199;-59
2021/08/20 07:21:27;;;;;;;10.47;2.80;;;17.20;99.90;;;;;;5049210;28;20580;-59
2021/08/20 07:23:53;;;;;;;12.13;3.77;;;17.20;99.90;;;;;;5048957;28;20171;-58
2021/08/20 07:26:19;;;;;;;4.00;3.00;;;17.30;99.90;;;;;;5029117;28;20555;-59
2021/08/20 07:28:45;;;;;;;8.33;2.90;;;17.40;99.90;;;;;;5029612;28;20330;-58
2021/08/20 07:31:11;;;;;;;9.83;3.97;;;17.50;99.90;;;;;;5050785;28;20448;-57
2021/08/20 07:33:36;;;;;;;7.57;3.40;;;17.60;99.90;;;;;;5038738;28;20667;-58
2021/08/20 07:36:03;;;;;;;6.17;3.17;;;17.80;99.90;;;;;;5028955;28;20582;-58
2021/08/20 07:38:29;;;;;;;4.63;2.97;;;17.80;99.90;;;;;;5028565;28;20215;-58
2021/08/20 07:40:54;;;;;;;3.33;3.03;;;17.90;99.90;;;;;;5038858;28;20925;-58
2021/08/20 07:43:20;;;;;;;5.70;3.27;;;18.00;99.90;;;;;;5048639;28;20214;-59
2021/08/20 07:45:49;;;;;;;14.30;3.77;;;18.10;99.90;;;;;;5048833;28;20159;-58
2021/08/20 07:48:14;;;;;;;7.10;3.33;;;18.20;99.90;;;;;;5046892;28;20238;-58
2021/08/20 07:50:40;;;;;;;6.20;3.23;;;18.30;99.90;;;;;;5048594;28;20884;-59
2021/08/20 07:53:07;;;;;;;7.13;2.70;;;18.40;99.90;;;;;;5061609;28;20288;-57
2021/08/20 07:55:33;;;;;;;8.90;3.47;;;18.50;99.90;;;;;;5047768;28;20468;-59
2021/08/20 07:57:59;;;;;;;4.70;2.90;;;18.70;99.90;;;;;;5046205;28;20861;-59
2021/08/20 08:00:30;;;;;;;6.20;3.10;;;18.80;99.90;;;;;;5048109;28;20417;-59
2021/08/20 08:02:56;;;;;;;8.60;2.70;;;18.90;99.20;;;;;;5053181;28;20262;-58
2021/08/20 08:05:23;;;;;;;3.23;2.60;;;19.00;97.70;;;;;;5048426;28;20457;-59
2021/08/20 08:07:49;;;;;;;3.23;2.73;;;19.10;97.10;;;;;;5051235;28;20819;-57
2021/08/20 08:10:16;;;;;;;2.30;2.10;;;19.30;96.30;;;;;;5051852;28;20495;-59
2021/08/20 08:12:42;;;;;;;5.43;2.40;;;19.30;93.20;;;;;;5033943;28;20433;-59
2021/08/20 08:15:09;;;;;;;5.70;2.00;;;19.40;93.10;;;;;;5033356;28;20930;-59
2021/08/20 08:17:37;;;;;;;3.23;2.70;;;19.50;91.60;;;;;;5046687;28;20487;-58
2021/08/20 08:20:08;;;;;;;2.50;2.13;;;19.40;90.50;;;;;;5051528;28;20870;-59
2021/08/20 08:22:34;;;;;;;2.03;1.83;;;19.40;91.30;;;;;;5029957;28;20741;-58
2021/08/20 08:24:59;;;;;;;3.17;2.53;;;19.60;92.60;;;;;;5031849;28;20445;-58
2021/08/20 08:27:25;;;;;;;4.03;1.83;;;19.70;92.50;;;;;;5031774;28;20196;-58
2021/08/20 08:29:51;;;;;;;8.10;2.10;;;19.80;92.10;;;;;;5046618;28;20306;-59
2021/08/20 08:32:17;;;;;;;2.20;2.00;;;19.90;91.40;;;;;;5032109;28;20164;-58
2021/08/20 08:34:42;;;;;;;2.10;1.90;;;20.00;90.90;;;;;;5037059;28;20765;-59
2021/08/20 08:37:08;;;;;;;3.20;2.10;;;20.10;90.90;;;;;;5050552;28;20222;-59
2021/08/20 08:39:34;;;;;;;2.10;1.90;;;20.20;90.20;;;;;;5046733;28;20211;-57
2021/08/20 08:42:00;;;;;;;2.40;1.90;;;20.30;84.50;;;;;;5051720;28;20330;-59
2021/08/20 08:44:26;;;;;;;2.57;2.37;;;20.30;82.90;;;;;;5051527;28;20397;-58
2021/08/20 08:46:52;;;;;;;2.73;2.53;;;20.40;82.60;;;;;;5047408;28;20808;-58
2021/08/20 08:49:22;;;;;;;2.40;2.13;;;20.50;82.90;;;;;;5038539;28;20552;-58
2021/08/20 08:51:49;;;;;;;2.00;1.83;;;20.60;83.70;;;;;;5051356;28;20175;-59
2021/08/20 08:54:15;;;;;;;3.67;2.30;;;20.60;77.50;;;;;;5050652;28;20894;-59
2021/08/20 08:56:46;;;;;;;3.50;2.23;;;20.70;75.60;;;;;;5046841;28;20545;-60
2021/08/20 08:59:11;;;;;;;2.20;2.00;;;20.60;73.40;;;;;;5029644;28;20414;-58
2021/08/20 09:01:38;;;;;;;2.87;1.83;;;20.50;70.00;;;;;;5042874;28;20868;-59
2021/08/20 09:04:08;;;;;;;2.40;2.20;;;20.40;69.30;;;;;;5051061;28;20166;-58
2021/08/20 09:06:39;;;;;;;4.13;2.40;;;20.30;70.70;;;;;;5046904;28;20430;-58
2021/08/20 09:09:09;;;;;;;3.23;2.20;;;20.30;74.00;;;;;;5030642;28;20410;-59
2021/08/20 09:11:35;;;;;;;3.83;1.87;;;20.30;72.10;;;;;;5031022;28;20935;-58
2021/08/20 09:14:01;;;;;;;2.53;2.03;;;20.30;73.90;;;;;;5044429;28;20531;-58
2021/08/20 09:16:44;;;;;;;3.07;2.37;;;20.30;76.80;;;;;;5045949;28;20756;-58
2021/08/20 09:19:21;;;;;;;3.13;2.83;;;20.30;75.40;;;;;;5031074;28;20153;-58
2021/08/20 09:21:57;;;;;;;2.73;2.30;;;20.30;77.10;;;;;;5031033;28;20422;-59
2021/08/20 09:24:35;;;;;;;3.03;2.70;;;20.30;76.20;;;;;;5047440;28;20426;-58
2021/08/20 09:27:19;;;;;;;2.50;2.10;;;20.40;73.30;;;;;;5043538;28;20636;-59
2021/08/20 09:29:56;;;;;;;3.30;2.93;;;20.40;72.70;;;;;;5031868;28;20445;-59
2021/08/20 09:32:24;;;;;;;4.07;2.43;;;20.60;72.60;;;;;;5050121;28;20489;-59
2021/08/20 09:34:52;;;;;;;4.53;2.33;;;20.70;73.70;;;;;;5035260;28;20434;-58
2021/08/20 09:37:20;;;;;;;3.37;2.40;;;21.00;73.40;;;;;;5048676;28;20425;-57
2021/08/20 09:39:46;;;;;;;2.40;2.20;;;21.30;75.90;;;;;;5050165;28;20410;-58
2021/08/20 09:42:18;;;;;;;2.43;2.23;;;21.60;68.50;;;;;;5050500;28;20405;-58
2021/08/20 09:44:44;;;;;;;4.50;3.00;;;21.80;69.50;;;;;;5034222;28;20533;-58
2021/08/20 09:47:11;;;;;;;3.07;2.77;;;22.10;69.00;;;;;;5036788;28;21010;-58
2021/08/20 09:49:57;;;;;;;2.93;2.63;;;22.30;64.20;;;;;;5049433;28;20555;-56
2021/08/20 09:52:30;;;;;;;2.77;2.40;;;22.30;64.10;;;;;;5033765;28;20474;-58
2021/08/20 09:54:56;;;;;;;7.90;3.20;;;22.30;62.60;;;;;;5049787;28;20413;-59
2021/08/20 09:57:28;;;;;;;3.00;2.80;;;22.30;57.60;;;;;;5049445;28;20449;-59
2021/08/20 09:59:55;;;;;;;4.10;2.80;;;22.10;57.20;;;;;;5031647;28;20418;-58
2021/08/20 10:02:28;;;;;;;2.30;2.13;;;22.00;58.20;;;;;;5044920;28;20478;-57
2021/08/20 10:04:58;;;;;;;2.57;2.30;;;22.10;59.00;;;;;;5044529;28;20398;-59
2021/08/20 10:07:26;;;;;;;3.57;2.60;;;22.30;59.90;;;;;;5069557;28;20520;-57
2021/08/20 10:09:53;;;;;;;5.27;2.60;;;22.50;60.00;;;;;;5051781;28;20478;-58
2021/08/20 10:12:20;;;;;;;3.20;2.57;;;22.50;56.10;;;;;;5029992;28;20430;-58
2021/08/20 10:14:46;;;;;;;3.20;2.57;;;22.30;57.00;;;;;;5046202;28;20922;-58
2021/08/20 10:17:13;;;;;;;3.53;2.57;;;22.00;56.50;;;;;;5060206;28;20440;-57
2021/08/20 10:19:41;;;;;;;3.53;2.73;;;21.80;58.20;;;;;;5039317;28;20426;-58
2021/08/20 10:22:08;;;;;;;4.43;2.53;;;21.60;57.80;;;;;;5044005;28;20410;-58
2021/08/20 10:24:34;;;;;;;2.63;2.43;;;21.40;58.40;;;;;;5048963;28;20483;-57
2021/08/20 10:27:02;;;;;;;3.20;2.70;;;21.30;59.10;;;;;;5029508;28;20631;-58
2021/08/20 10:29:30;;;;;;;3.40;2.30;;;21.30;60.60;;;;;;5029790;28;20250;-58
2021/08/20 10:31:57;;;;;;;3.50;2.83;;;21.40;61.30;;;;;;5029592;28;20915;-59
2021/08/20 10:34:36;;;;;;;2.90;2.60;;;21.60;60.40;;;;;;5032109;28;20493;-58
2021/08/20 10:37:27;;;;;;;7.00;2.60;;;21.60;58.00;;;;;;5038483;28;20441;-58
2021/08/20 10:39:56;;;;;;;4.60;3.20;;;21.60;58.20;;;;;;5039957;28;20946;-58
2021/08/20 10:42:42;;;;;;;3.67;2.97;;;21.60;58.70;;;;;;5049146;28;20441;-58
2021/08/20 10:45:10;;;;;;;4.60;2.80;;;21.60;57.50;;;;;;5039271;28;20430;-59
2021/08/20 10:47:35;;;;;;;4.13;2.43;;;21.70;58.10;;;;;;5048320;28;20987;-58
2021/08/20 10:50:20;;;;;;;3.07;2.77;;;22.00;59.00;;;;;;5049312;28;20481;-58
2021/08/20 10:52:51;;;;;;;2.67;2.47;;;22.30;56.80;;;;;;5031473;28;20253;-58
2021/08/20 10:55:28;;;;;;;3.70;3.10;;;22.60;58.00;;;;;;5039838;28;20453;-59
2021/08/20 10:57:55;;;;;;;2.40;2.20;;;22.80;55.80;;;;;;5048220;28;20436;-57
2021/08/20 11:00:21;;;;;;;2.77;2.40;;;23.00;55.70;;;;;;5048797;28;20471;-58
2021/08/20 11:02:53;;;;;;;4.00;2.67;;;23.20;55.10;;;;;;5044112;28;20839;-58
2021/08/20 11:05:34;;;;;;;3.07;2.77;;;23.60;56.40;;;;;;5031521;28;20235;-59
2021/08/20 11:08:00;;;;;;;3.03;2.73;;;23.70;53.80;;;;;;5048518;28;20430;-58
2021/08/20 11:10:25;;;;;;;2.73;2.50;;;24.00;54.60;;;;;;5047193;28;20475;-58
2021/08/20 11:12:51;;;;;;;3.60;3.00;;;24.10;52.50;;;;;;5048617;28;20189;-58
2021/08/20 11:15:23;;;;;;;3.67;2.27;;;24.10;51.00;;;;;;5048190;28;20174;-59
2021/08/20 11:17:49;;;;;;;5.30;2.80;;;24.30;51.50;;;;;;5043917;28;20187;-58
2021/08/20 11:20:18;;;;;;;3.07;2.77;;;24.30;51.40;;;;;;5049194;28;20766;-58
2021/08/20 11:22:44;;;;;;;3.27;2.50;;;24.10;51.30;;;;;;5048628;28;20247;-58
2021/08/20 11:25:13;;;;;;;5.20;2.80;;;23.80;51.80;;;;;;5049069;28;20420;-58
2021/08/20 11:27:40;;;;;;;4.17;2.40;;;23.70;52.80;;;;;;5047384;28;20194;-59
2021/08/20 11:30:06;;;;;;;5.60;3.23;;;23.50;53.10;;;;;;5047360;28;20448;-58
2021/08/20 11:32:32;;;;;;;6.10;3.00;;;23.60;52.80;;;;;;5048359;28;20448;-57
2021/08/20 11:34:57;;;;;;;3.90;2.60;;;23.80;53.80;;;;;;5045274;28;20503;-58
2021/08/20 11:37:23;;;;;;;3.63;3.13;;;24.10;53.70;;;;;;5042449;28;20695;-57
2021/08/20 11:40:05;;;;;;;6.10;2.87;;;24.40;53.10;;;;;;5052610;28;20202;-58
2021/08/20 11:42:31;;;;;;;2.77;2.57;;;24.60;52.60;;;;;;5034536;28;20190;-58
2021/08/20 11:44:57;;;;;;;3.27;2.80;;;24.50;51.70;;;;;;5050227;28;20421;-59
2021/08/20 11:47:22;;;;;;;3.10;2.43;;;24.20;51.90;;;;;;5051894;28;20688;-57
2021/08/20 11:49:48;;;;;;;2.80;2.50;;;24.10;53.20;;;;;;5051619;28;20195;-58
2021/08/20 11:52:14;;;;;;;3.17;2.87;;;23.90;53.30;;;;;;5052474;28;20156;-58
2021/08/20 11:54:40;;;;;;;4.60;3.13;;;23.90;52.70;;;;;;5030491;28;20180;-57
2021/08/20 11:57:06;;;;;;;3.00;2.40;;;23.90;52.30;;;;;;5052117;22;20210;-58
2021/08/20 11:59:32;;;;;;;3.33;2.70;;;24.20;52.30;;;;;;5033747;28;20418;-58
2021/08/20 12:02:01;;;;;;;3.20;2.80;;;24.50;51.70;;;;;;5024136;28;20174;-57
2021/08/20 12:04:27;;;;;;;3.27;2.60;;;24.60;51.30;;;;;;5031074;28;20172;-58
2021/08/20 12:06:55;;;;;;;3.93;2.83;;;24.70;51.70;;;;;;5014010;28;20430;-60
2021/08/20 12:09:23;;;;;;;3.37;2.97;;;24.80;51.10;;;;;;5011689;28;20411;-58
2021/08/20 12:11:55;;;;;;;3.00;2.50;;;25.10;51.50;;;;;;5011525;28;20803;-57
2021/08/20 12:14:23;;;;;;;4.10;3.10;;;25.40;52.00;;;;;;4992972;28;20395;-58
2021/08/20 12:16:53;;;;;;;4.43;3.00;;;25.70;50.50;;;;;;4992463;28;20463;-58
2021/08/20 12:19:21;;;;;;;3.53;2.90;;;26.00;52.00;;;;;;4998896;28;20939;-60
2021/08/20 12:21:55;;;;;;;5.87;2.80;;;26.40;51.70;;;;;;5001750;28;20488;-59
2021/08/20 12:24:37;;;;;;;2.80;2.60;;;26.70;49.80;;;;;;4994516;28;20422;-59
2021/08/20 12:27:19;;;;;;;5.33;2.90;;;27.00;50.70;;;;;;5011544;28;20402;-58
2021/08/20 12:30:00;;;;;;;5.17;3.27;;;27.20;50.80;;;;;;5011114;28;20431;-59
2021/08/20 12:32:27;;;;;;;3.90;2.83;;;27.50;49.50;;;;;;4999034;28;20502;-58
2021/08/20 12:35:19;;;;;;;3.10;2.80;;;27.70;48.50;;;;;;5008625;28;20502;-58
2021/08/20 12:38:02;;;;;;;4.40;2.90;;;27.80;46.60;;;;;;4983092;28;20438;-58
2021/08/20 12:40:42;;;;;;;4.03;3.63;;;27.80;46.80;;;;;;5003190;28;20434;-57
2021/08/20 12:43:32;;;;;;;3.33;2.67;;;27.80;45.80;;;;;;4991288;28;20959;-59
2021/08/20 12:46:01;;;;;;;3.90;3.10;;;27.90;46.20;;;;;;4974748;28;20408;-57
2021/08/20 12:48:27;;;;;;;4.60;3.07;;;27.50;46.20;;;;;;4997936;28;20477;-59
2021/08/20 12:50:58;;;;;;;2.97;2.57;;;27.00;46.30;;;;;;4985438;28;20807;-59
2021/08/20 12:53:31;;;;;;;2.37;2.17;;;26.50;46.40;;;;;;5018302;28;20149;-59
2021/08/20 12:55:57;;;;;;;2.97;2.63;;;26.00;46.30;;;;;;5000295;28;20528;-58
2021/08/20 12:58:31;;;;;;;2.80;2.60;;;25.70;48.90;;;;;;4992177;28;20967;-59
2021/08/20 13:01:02;;;;;;;7.10;3.23;;;25.80;50.40;;;;;;4974120;28;20723;-57
2021/08/20 13:03:28;;;;;;;5.23;3.20;;;26.30;48.40;;;;;;5011107;28;20430;-58